createdAt,value
2022-07-31T00:01:31.976Z,101694.28
2022-07-31T00:04:06.195Z,101688.09
2022-07-31T00:06:39.147Z,101684.06
2022-07-31T00:09:48.827Z,101690.38
2022-07-31T00:12:05.288Z,101683.97
2022-07-31T00:14:38.036Z,101686.97
2022-07-31T00:17:10.909Z,101688.22
2022-07-31T00:19:44.907Z,101686.44
2022-07-31T00:22:17.690Z,101683.59
2022-07-31T00:24:50.540Z,101691.38
2022-07-31T00:27:23.883Z,101689.97
2022-07-31T00:29:56.665Z,101681.13
2022-07-31T00:32:29.447Z,101685.31
2022-07-31T00:35:03.377Z,101677.09
2022-07-31T00:37:37.309Z,101682.81
2022-07-31T00:40:13.215Z,101681.22
2022-07-31T00:42:46.220Z,101678.22
2022-07-31T00:45:18.871Z,101674.22
2022-07-31T00:47:57.757Z,101673.34
2022-07-31T00:50:32.106Z,101663.09
2022-07-31T00:53:05.431Z,101662.13
2022-07-31T00:55:51.753Z,101664.59
2022-07-31T00:58:25.054Z,101661.44
2022-07-31T01:00:57.985Z,101656.47
2022-07-31T01:03:31.920Z,101660.16
2022-07-31T01:06:07.679Z,101662.41
2022-07-31T01:08:40.849Z,101653.53
2022-07-31T01:11:18.285Z,101658.47
2022-07-31T01:13:56.447Z,101654.91
2022-07-31T01:16:40.884Z,101650.78
2022-07-31T01:19:23.307Z,101650.59
2022-07-31T01:22:34.494Z,101653.78
2022-07-31T01:25:12.866Z,101650.72
2022-07-31T01:28:04.246Z,101647.47
2022-07-31T01:30:46.559Z,101645.91
2022-07-31T01:33:23.849Z,101648.69
2022-07-31T01:36:03.780Z,101651.50
2022-07-31T01:38:45.247Z,101647.31
2022-07-31T01:41:22.399Z,101638.03
2022-07-31T01:43:57.997Z,101638.94
2022-07-31T01:46:41.426Z,101638.81
2022-07-31T01:49:19.173Z,101627.09
2022-07-31T01:51:53.870Z,101621.78
2022-07-31T01:54:30.327Z,101624.59
2022-07-31T01:57:07.012Z,101623.69
2022-07-31T01:59:46.703Z,101623.88
2022-07-31T02:02:28.056Z,101622.22
2022-07-31T02:05:04.124Z,101620.31
2022-07-31T02:07:40.223Z,101611.00
2022-07-31T02:10:16.524Z,101603.00
2022-07-31T02:12:51.856Z,101615.16
2022-07-31T02:15:25.757Z,101613.59
2022-07-31T02:18:09.234Z,101620.94
2022-07-31T02:20:43.284Z,101623.81
2022-07-31T02:23:16.222Z,101613.59
2022-07-31T02:25:49.611Z,101608.06
2022-07-31T02:28:23.975Z,101603.00
2022-07-31T02:31:01.295Z,101600.31
2022-07-31T02:33:39.014Z,101593.75
2022-07-31T02:36:13.895Z,101607.28
2022-07-31T02:38:47.293Z,101610.41
2022-07-31T02:41:22.218Z,101602.56
2022-07-31T02:43:55.888Z,101606.16
2022-07-31T02:46:30.648Z,101598.63
2022-07-31T02:49:05.918Z,101598.03
2022-07-31T02:51:42.680Z,101591.38
2022-07-31T02:54:18.278Z,101589.47
2022-07-31T02:56:51.774Z,101586.84
2022-07-31T02:59:25.121Z,101584.41
2022-07-31T03:02:05.701Z,101581.09
2022-07-31T03:04:46.100Z,101579.66
2022-07-31T03:07:18.857Z,101586.84
2022-07-31T03:09:52.460Z,101588.78
2022-07-31T03:13:04.343Z,101594.09
2022-07-31T03:15:37.662Z,101594.19
2022-07-31T03:18:14.770Z,101583.69
2022-07-31T03:20:51.860Z,101581.94
2022-07-31T03:23:27.216Z,101586.34
2022-07-31T03:26:07.770Z,101588.78
2022-07-31T03:28:40.814Z,101583.53
2022-07-31T03:31:13.762Z,101587.38
2022-07-31T03:33:46.664Z,101579.41
2022-07-31T03:36:22.414Z,101576.19
2022-07-31T03:38:55.726Z,101576.72
2022-07-31T03:41:39.083Z,101575.75
2022-07-31T03:44:12.522Z,101576.63
2022-07-31T03:46:45.355Z,101572.84
2022-07-31T03:49:18.498Z,101572.16
2022-07-31T03:51:53.733Z,101575.84
2022-07-31T03:54:26.662Z,101569.44
2022-07-31T03:57:20.346Z,101568.78
2022-07-31T03:59:57.650Z,101574.25
2022-07-31T04:02:31.866Z,101563.06
2022-07-31T04:05:11.154Z,101562.00
2022-07-31T04:07:47.346Z,101558.97
2022-07-31T04:10:20.236Z,101561.31
2022-07-31T04:12:53.000Z,101548.19
2022-07-31T04:15:26.088Z,101556.97
2022-07-31T04:17:59.085Z,101549.88
2022-07-31T04:20:40.541Z,101542.78
2022-07-31T04:23:14.641Z,101549.09
2022-07-31T04:26:19.826Z,101553.00
2022-07-31T04:29:07.993Z,101554.75
2022-07-31T04:31:42.228Z,101556.25
2022-07-31T04:34:18.482Z,101551.63
2022-07-31T04:36:51.252Z,101555.56
2022-07-31T04:39:25.570Z,101545.16
2022-07-31T04:41:58.492Z,101546.38
2022-07-31T04:44:32.157Z,101543.66
2022-07-31T04:47:06.790Z,101546.13
2022-07-31T04:49:42.757Z,101535.03
2022-07-31T04:52:18.120Z,101541.41
2022-07-31T04:54:54.263Z,101535.91
2022-07-31T04:57:27.066Z,101536.06
2022-07-31T05:00:01.400Z,101532.81
2022-07-31T05:02:40.365Z,101540.78
2022-07-31T05:05:14.200Z,101534.06
2022-07-31T05:07:48.680Z,101532.50
2022-07-31T05:10:46.053Z,101527.78
2022-07-31T05:13:19.108Z,101522.19
2022-07-31T05:15:52.503Z,101539.66
2022-07-31T05:18:25.333Z,101533.38
2022-07-31T05:21:17.747Z,101535.03
2022-07-31T05:24:01.618Z,101534.50
2022-07-31T05:26:45.731Z,101534.94
2022-07-31T05:29:18.529Z,101541.75
2022-07-31T05:32:00.333Z,101537.28
2022-07-31T05:34:34.141Z,101527.69
2022-07-31T05:37:07.032Z,101524.44
2022-07-31T05:39:43.048Z,101529.16
2022-07-31T05:42:35.571Z,101525.31
2022-07-31T05:45:37.568Z,101530.41
2022-07-31T05:48:10.327Z,101527.22
2022-07-31T05:50:43.893Z,101521.13
2022-07-31T05:53:17.437Z,101524.44
2022-07-31T05:56:22.921Z,101524.44
2022-07-31T05:58:58.981Z,101529.16
2022-07-31T06:01:31.845Z,101533.97
2022-07-31T06:04:04.591Z,101536.34
2022-07-31T06:06:46.440Z,101530.81
2022-07-31T06:09:20.401Z,101529.16
2022-07-31T06:11:53.168Z,101514.81
2022-07-31T06:14:27.450Z,101527.69
2022-07-31T06:17:16.117Z,101525.31
2022-07-31T06:19:48.890Z,101525.81
2022-07-31T06:22:21.561Z,101531.22
2022-07-31T06:24:54.270Z,101530.56
2022-07-31T06:27:33.830Z,101528.19
2022-07-31T06:30:11.386Z,101529.66
2022-07-31T06:32:44.219Z,101526.88
2022-07-31T06:35:17.035Z,101521.63
2022-07-31T06:38:08.327Z,101529.16
2022-07-31T06:41:01.008Z,101532.75
2022-07-31T06:43:42.839Z,101533.09
2022-07-31T06:46:49.060Z,101532.31
2022-07-31T06:49:40.936Z,101535.53
2022-07-31T06:52:13.618Z,101532.22
2022-07-31T06:54:46.909Z,101520.66
2022-07-31T06:57:19.683Z,101528.00
2022-07-31T06:59:56.085Z,101531.22
2022-07-31T07:02:30.749Z,101526.88
2022-07-31T07:05:06.635Z,101527.56
2022-07-31T07:07:40.830Z,101530.59
2022-07-31T07:10:14.951Z,101526.97
2022-07-31T07:13:07.260Z,101521.38
2022-07-31T07:15:42.205Z,101520.25
2022-07-31T07:18:17.422Z,101518.44
2022-07-31T07:20:55.057Z,101518.44
2022-07-31T07:23:27.849Z,101526.28
2022-07-31T07:26:29.979Z,101516.88
2022-07-31T07:29:02.770Z,101515.19
2022-07-31T07:31:36.426Z,101520.28
2022-07-31T07:34:10.608Z,101513.16
2022-07-31T07:36:43.813Z,101504.25
2022-07-31T07:39:28.052Z,101507.47
2022-07-31T07:42:02.387Z,101515.97
2022-07-31T07:44:35.347Z,101511.16
2022-07-31T07:47:08.561Z,101508.88
2022-07-31T07:49:42.755Z,101519.69
2022-07-31T07:52:32.975Z,101503.41
2022-07-31T07:55:28.405Z,101502.19
2022-07-31T07:58:28.817Z,101496.91
2022-07-31T08:01:40.200Z,101505.69
2022-07-31T08:04:31.727Z,101509.34
2022-07-31T08:07:06.213Z,101511.81
2022-07-31T08:09:43.210Z,101506.25
2022-07-31T08:12:35.515Z,101496.81
2022-07-31T08:15:11.605Z,101500.75
2022-07-31T08:18:18.584Z,101499.75
2022-07-31T08:20:51.393Z,101504.78
2022-07-31T08:23:25.651Z,101500.16
2022-07-31T08:25:58.460Z,101496.91
2022-07-31T08:28:32.137Z,101497.63
2022-07-31T08:31:05.144Z,101499.88
2022-07-31T08:33:46.121Z,101494.03
2022-07-31T08:36:18.897Z,101503.47
2022-07-31T08:38:52.990Z,101501.31
2022-07-31T08:41:51.690Z,101492.75
2022-07-31T08:44:27.164Z,101495.44
2022-07-31T08:47:07.510Z,101505.03
2022-07-31T08:49:42.292Z,101493.25
2022-07-31T08:52:18.907Z,101502.19
2022-07-31T08:55:10.488Z,101504.34
2022-07-31T08:57:57.653Z,101502.66
2022-07-31T09:00:30.528Z,101511.41
2022-07-31T09:03:03.620Z,101499.31
2022-07-31T09:05:51.702Z,101507.59
2022-07-31T09:08:25.683Z,101504.38
2022-07-31T09:11:09.176Z,101511.09
2022-07-31T09:14:02.772Z,101505.38
2022-07-31T09:16:52.523Z,101503.03
2022-07-31T09:19:53.475Z,101510.41
2022-07-31T09:22:34.371Z,101501.50
2022-07-31T09:25:13.133Z,101505.63
2022-07-31T09:27:48.529Z,101507.84
2022-07-31T09:30:21.940Z,101507.63
2022-07-31T09:33:17.194Z,101506.44
2022-07-31T09:36:16.047Z,101507.50
2022-07-31T09:38:57.515Z,101492.06
2022-07-31T09:42:16.463Z,101498.97
2022-07-31T09:45:02.622Z,101501.31
2022-07-31T09:47:37.748Z,101507.38
2022-07-31T09:50:12.377Z,101498.28
2022-07-31T09:52:45.377Z,101502.06
2022-07-31T09:55:18.757Z,101510.38
2022-07-31T09:57:54.025Z,101499.72
2022-07-31T10:00:29.105Z,101507.91
2022-07-31T10:03:03.349Z,101499.19
2022-07-31T10:05:38.659Z,101508.94
2022-07-31T10:08:14.160Z,101519.88
2022-07-31T10:11:16.556Z,101502.44
2022-07-31T10:14:01.778Z,101508.16
2022-07-31T10:16:38.944Z,101508.19
2022-07-31T10:19:47.163Z,101503.69
2022-07-31T10:22:45.592Z,101508.41
2022-07-31T10:25:25.314Z,101507.03
2022-07-31T10:27:59.123Z,101498.88
2022-07-31T10:30:32.827Z,101498.56
2022-07-31T10:33:27.954Z,101494.53
2022-07-31T10:36:23.614Z,101495.13
2022-07-31T10:39:32.864Z,101498.84
2022-07-31T10:42:20.893Z,101497.06
2022-07-31T10:44:59.729Z,101493.81
2022-07-31T10:47:54.634Z,101491.25
2022-07-31T10:51:05.794Z,101490.72
2022-07-31T10:54:00.485Z,101493.84
2022-07-31T10:56:52.582Z,101492.47
2022-07-31T10:59:47.605Z,101487.88
2022-07-31T11:02:55.763Z,101486.66
2022-07-31T11:06:02.663Z,101484.16
2022-07-31T11:08:55.995Z,101485.88
2022-07-31T11:11:56.614Z,101483.63
2022-07-31T11:14:46.107Z,101476.31
2022-07-31T11:18:22.697Z,101480.03
2022-07-31T11:20:32.695Z,101483.38
2022-07-31T11:23:08.168Z,101486.06
2022-07-31T11:25:42.949Z,101484.94
2022-07-31T11:28:21.431Z,101492.66
2022-07-31T11:30:56.072Z,101485.38
2022-07-31T11:33:41.516Z,101487.19
2022-07-31T11:36:18.044Z,101491.53
2022-07-31T11:38:52.718Z,101489.75
2022-07-31T11:41:40.435Z,101480.88
2022-07-31T11:44:21.877Z,101484.88
2022-07-31T11:46:55.767Z,101485.00
2022-07-31T11:49:47.697Z,101488.34
2022-07-31T11:52:30.682Z,101475.25
2022-07-31T11:55:11.551Z,101475.63
2022-07-31T11:57:51.011Z,101479.97
2022-07-31T12:00:29.735Z,101473.75
2022-07-31T12:03:03.120Z,101483.22
2022-07-31T12:05:44.217Z,101484.63
2022-07-31T12:08:18.084Z,101479.25
2022-07-31T12:10:53.430Z,101489.66
2022-07-31T12:13:31.746Z,101478.75
2022-07-31T12:16:06.536Z,101478.69
2022-07-31T12:18:49.173Z,101482.31
2022-07-31T12:21:33.185Z,101480.91
2022-07-31T12:24:12.355Z,101473.75
2022-07-31T12:26:52.317Z,101488.66
2022-07-31T12:29:35.793Z,101478.94
2022-07-31T12:32:12.631Z,101478.69
2022-07-31T12:34:46.902Z,101476.41
2022-07-31T12:37:22.108Z,101471.31
2022-07-31T12:40:00.155Z,101468.19
2022-07-31T12:42:41.183Z,101463.84
2022-07-31T12:45:20.324Z,101475.25
2022-07-31T12:47:55.874Z,101483.06
2022-07-31T12:50:30.870Z,101475.63
2022-07-31T12:53:06.051Z,101485.81
2022-07-31T12:55:38.869Z,101475.88
2022-07-31T12:58:11.607Z,101480.13
2022-07-31T13:00:45.822Z,101484.22
2022-07-31T13:03:19.149Z,101480.03
2022-07-31T13:05:52.309Z,101483.44
2022-07-31T13:08:26.435Z,101484.22
2022-07-31T13:10:59.979Z,101483.78
2022-07-31T13:13:33.134Z,101473.72
2022-07-31T13:16:07.645Z,101479.16
2022-07-31T13:18:40.360Z,101479.94
2022-07-31T13:21:14.422Z,101469.88
2022-07-31T13:23:47.164Z,101467.22
2022-07-31T13:26:20.791Z,101469.84
2022-07-31T13:28:55.373Z,101466.41
2022-07-31T13:31:31.268Z,101468.56
2022-07-31T13:34:04.212Z,101470.59
2022-07-31T13:36:39.172Z,101470.59
2022-07-31T13:39:13.773Z,101469.72
2022-07-31T13:41:46.502Z,101459.75
2022-07-31T13:44:19.467Z,101453.09
2022-07-31T13:46:54.332Z,101454.91
2022-07-31T13:49:32.061Z,101466.34
2022-07-31T13:52:05.803Z,101463.09
2022-07-31T13:54:41.221Z,101452.22
2022-07-31T13:57:14.904Z,101452.91
2022-07-31T13:59:50.233Z,101457.06
2022-07-31T14:02:24.532Z,101442.63
2022-07-31T14:04:57.311Z,101446.53
2022-07-31T14:07:45.727Z,101453.59
2022-07-31T14:10:23.262Z,101454.94
2022-07-31T14:12:56.179Z,101454.94
2022-07-31T14:15:30.366Z,101452.81
2022-07-31T14:18:08.122Z,101447.31
2022-07-31T14:20:41.578Z,101447.91
2022-07-31T14:23:14.304Z,101456.84
2022-07-31T14:25:47.327Z,101455.63
2022-07-31T14:28:20.088Z,101453.59
2022-07-31T14:30:52.820Z,101456.31
2022-07-31T14:33:28.621Z,101445.34
2022-07-31T14:36:01.372Z,101446.22
2022-07-31T14:38:34.273Z,101452.28
2022-07-31T14:41:07.503Z,101446.66
2022-07-31T14:43:40.374Z,101450.47
2022-07-31T14:46:13.065Z,101443.97
2022-07-31T14:48:47.272Z,101452.25
2022-07-31T14:51:20.663Z,101441.84
2022-07-31T14:53:53.418Z,101455.72
2022-07-31T14:56:51.407Z,101443.28
2022-07-31T14:59:19.597Z,101440.38
2022-07-31T15:01:52.580Z,101449.13
2022-07-31T15:04:26.578Z,101448.09
2022-07-31T15:07:19.200Z,101450.34
2022-07-31T15:09:52.617Z,101441.81
2022-07-31T15:12:25.628Z,101448.00
2022-07-31T15:14:58.505Z,101447.00
2022-07-31T15:17:31.357Z,101441.25
2022-07-31T15:20:05.898Z,101446.75
2022-07-31T15:22:38.590Z,101446.91
2022-07-31T15:25:11.607Z,101448.66
2022-07-31T15:27:44.336Z,101447.53
2022-07-31T15:30:18.346Z,101447.53
2022-07-31T15:32:53.261Z,101439.38
2022-07-31T15:35:28.401Z,101442.06
2022-07-31T15:38:02.206Z,101446.13
2022-07-31T15:40:34.982Z,101452.81
2022-07-31T15:43:07.715Z,101443.72
2022-07-31T15:45:40.472Z,101437.91
2022-07-31T15:48:13.325Z,101442.97
2022-07-31T15:50:47.666Z,101439.50
2022-07-31T15:53:20.340Z,101451.38
2022-07-31T15:55:53.150Z,101450.72
2022-07-31T15:58:25.747Z,101449.34
2022-07-31T16:01:01.553Z,101447.91
2022-07-31T16:03:50.899Z,101449.78
2022-07-31T16:06:28.078Z,101449.56
2022-07-31T16:09:05.050Z,101441.50
2022-07-31T16:12:04.008Z,101436.56
2022-07-31T16:14:30.303Z,101446.91
2022-07-31T16:17:03.282Z,101437.13
2022-07-31T16:19:36.126Z,101432.06
2022-07-31T16:22:10.717Z,101436.75
2022-07-31T16:24:43.533Z,101440.94
2022-07-31T16:27:16.123Z,101436.00
2022-07-31T16:29:59.404Z,101448.91
2022-07-31T16:32:35.054Z,101455.38
2022-07-31T16:35:08.961Z,101434.22
2022-07-31T16:37:52.197Z,101440.69
2022-07-31T16:40:30.942Z,101427.91
2022-07-31T16:43:49.594Z,101438.13
2022-07-31T16:45:58.436Z,101437.16
2022-07-31T16:48:31.232Z,101420.22
2022-07-31T16:51:04.270Z,101417.28
2022-07-31T16:54:13.624Z,101419.19
2022-07-31T16:56:31.369Z,101430.47
2022-07-31T16:59:04.940Z,101426.03
2022-07-31T17:02:00.141Z,101428.97
2022-07-31T17:04:30.673Z,101429.25
2022-07-31T17:07:03.744Z,101431.50
2022-07-31T17:09:38.202Z,101437.44
2022-07-31T17:12:11.687Z,101425.25
2022-07-31T17:14:44.815Z,101430.91
2022-07-31T17:17:18.905Z,101428.19
2022-07-31T17:19:55.250Z,101436.75
2022-07-31T17:22:28.101Z,101436.13
2022-07-31T17:25:05.432Z,101439.06
2022-07-31T17:27:38.361Z,101434.88
2022-07-31T17:30:11.314Z,101435.16
2022-07-31T17:32:44.059Z,101445.88
2022-07-31T17:35:16.863Z,101438.72
2022-07-31T17:37:49.729Z,101443.66
2022-07-31T17:40:42.460Z,101445.28
2022-07-31T17:43:16.042Z,101450.59
2022-07-31T17:46:06.269Z,101452.25
2022-07-31T17:48:42.591Z,101462.34
2022-07-31T17:51:15.294Z,101454.59
2022-07-31T17:53:55.084Z,101456.75
2022-07-31T17:56:33.789Z,101456.88
2022-07-31T17:59:06.984Z,101458.31
2022-07-31T18:01:39.810Z,101452.13
2022-07-31T18:04:12.498Z,101458.59
2022-07-31T18:06:54.441Z,101455.06
2022-07-31T18:09:28.722Z,101471.75
2022-07-31T18:12:03.787Z,101460.66
2022-07-31T18:14:37.060Z,101463.25
2022-07-31T18:17:09.804Z,101478.72
2022-07-31T18:19:42.609Z,101471.53
2022-07-31T18:22:15.379Z,101472.88
2022-07-31T18:24:48.102Z,101480.72
2022-07-31T18:27:22.049Z,101484.19
2022-07-31T18:29:56.186Z,101492.25
2022-07-31T18:32:30.960Z,101486.88
2022-07-31T18:35:04.823Z,101491.66
2022-07-31T18:37:38.478Z,101494.00
2022-07-31T18:40:11.893Z,101486.75
2022-07-31T18:42:46.274Z,101500.03
2022-07-31T18:45:19.019Z,101491.84
2022-07-31T18:47:51.863Z,101499.81
2022-07-31T18:51:00.948Z,101495.19
2022-07-31T18:53:17.517Z,101493.09
2022-07-31T18:55:52.623Z,101489.06
2022-07-31T18:58:27.578Z,101488.94
2022-07-31T19:01:00.266Z,101497.00
2022-07-31T19:03:32.986Z,101493.03
2022-07-31T19:06:05.902Z,101500.09
2022-07-31T19:08:38.729Z,101499.03
2022-07-31T19:11:12.204Z,101494.28
2022-07-31T19:13:46.736Z,101501.19
2022-07-31T19:16:19.508Z,101499.19
2022-07-31T19:18:53.735Z,101501.72
2022-07-31T19:21:41.951Z,101504.78
2022-07-31T19:24:15.431Z,101512.63
2022-07-31T19:26:48.162Z,101507.03
2022-07-31T19:29:23.345Z,101509.69
2022-07-31T19:31:59.446Z,101513.31
2022-07-31T19:34:32.479Z,101525.00
2022-07-31T19:37:12.408Z,101525.22
2022-07-31T19:39:45.644Z,101524.22
2022-07-31T19:42:18.496Z,101527.56
2022-07-31T19:44:52.665Z,101522.50
2022-07-31T19:47:25.561Z,101522.50
2022-07-31T19:49:58.385Z,101523.38
2022-07-31T19:52:31.154Z,101534.38
2022-07-31T19:55:04.275Z,101537.25
2022-07-31T19:57:37.712Z,101535.63
2022-07-31T20:00:13.627Z,101542.00
2022-07-31T20:02:47.314Z,101537.50
2022-07-31T20:05:20.143Z,101545.91
2022-07-31T20:07:53.014Z,101557.47
2022-07-31T20:10:25.823Z,101543.41
2022-07-31T20:12:58.670Z,101549.09
2022-07-31T20:15:51.315Z,101549.09
2022-07-31T20:18:28.781Z,101561.84
2022-07-31T20:21:03.767Z,101567.09
2022-07-31T20:23:38.358Z,101564.75
2022-07-31T20:26:13.790Z,101566.81
2022-07-31T20:28:46.762Z,101568.31
2022-07-31T20:31:22.079Z,101564.22
2022-07-31T20:33:56.750Z,101569.97
2022-07-31T20:36:30.872Z,101571.28
2022-07-31T20:39:03.627Z,101574.78
2022-07-31T20:41:36.793Z,101565.16
2022-07-31T20:44:09.582Z,101572.16
2022-07-31T20:46:44.556Z,101578.63
2022-07-31T20:49:19.745Z,101574.59
2022-07-31T20:52:09.022Z,101577.84
2022-07-31T20:54:42.084Z,101578.28
2022-07-31T20:57:15.647Z,101579.59
2022-07-31T20:59:48.298Z,101583.25
2022-07-31T21:02:22.470Z,101586.13
2022-07-31T21:04:55.220Z,101591.72
2022-07-31T21:07:28.774Z,101591.81
2022-07-31T21:10:02.741Z,101586.31
2022-07-31T21:12:37.614Z,101593.41
2022-07-31T21:15:28.531Z,101597.88
2022-07-31T21:18:08.273Z,101591.72
2022-07-31T21:20:50.861Z,101602.91
2022-07-31T21:23:27.031Z,101591.03
2022-07-31T21:26:00.133Z,101584.75
2022-07-31T21:28:33.380Z,101593.13
2022-07-31T21:31:06.745Z,101592.78
2022-07-31T21:33:41.353Z,101595.13
2022-07-31T21:36:15.308Z,101594.78
2022-07-31T21:38:48.357Z,101599.59
2022-07-31T21:41:22.979Z,101588.75
2022-07-31T21:43:58.908Z,101595.91
2022-07-31T21:46:39.435Z,101600.38
2022-07-31T21:49:20.382Z,101602.91
2022-07-31T21:51:53.747Z,101596.25
2022-07-31T21:54:26.486Z,101605.69
2022-07-31T21:56:59.234Z,101600.22
2022-07-31T21:59:31.985Z,101609.00
2022-07-31T22:02:05.050Z,101609.09
2022-07-31T22:04:59.778Z,101615.66
2022-07-31T22:07:41.487Z,101616.88
2022-07-31T22:10:16.353Z,101617.22
2022-07-31T22:12:49.736Z,101609.78
2022-07-31T22:15:22.739Z,101610.59
2022-07-31T22:17:55.537Z,101605.00
2022-07-31T22:20:30.291Z,101608.31
2022-07-31T22:23:03.463Z,101608.81
2022-07-31T22:25:36.912Z,101610.94
2022-07-31T22:28:13.411Z,101605.53
2022-07-31T22:30:46.828Z,101607.69
2022-07-31T22:33:20.235Z,101608.13
2022-07-31T22:35:58.872Z,101616.44
2022-07-31T22:38:32.898Z,101615.13
2022-07-31T22:41:06.071Z,101619.09
2022-07-31T22:44:13.153Z,101622.00
2022-07-31T22:46:33.728Z,101617.38
2022-07-31T22:49:08.390Z,101620.16
2022-07-31T22:51:46.527Z,101624.28
2022-07-31T22:54:19.505Z,101625.25
2022-07-31T22:56:52.344Z,101631.84
2022-07-31T22:59:25.072Z,101634.47
2022-07-31T23:01:58.583Z,101642.88
2022-07-31T23:04:37.417Z,101644.47
2022-07-31T23:07:11.603Z,101632.56
2022-07-31T23:09:44.350Z,101633.06
2022-07-31T23:12:17.143Z,101630.28
2022-07-31T23:14:49.866Z,101630.28
2022-07-31T23:17:23.492Z,101632.66
2022-07-31T23:19:56.687Z,101635.13
2022-07-31T23:22:34.174Z,101638.25
2022-07-31T23:25:08.748Z,101650.84
2022-07-31T23:27:41.508Z,101651.53
2022-07-31T23:30:14.559Z,101656.69
2022-07-31T23:32:47.357Z,101655.28
2022-07-31T23:35:20.139Z,101653.06
2022-07-31T23:37:54.149Z,101651.41
2022-07-31T23:40:26.856Z,101648.59
2022-07-31T23:42:58.667Z,101652.63
2022-07-31T23:45:31.446Z,101651.06
2022-07-31T23:48:05.155Z,101657.88
2022-07-31T23:50:37.965Z,101657.09
2022-07-31T23:53:12.608Z,101661.66
2022-07-31T23:55:45.409Z,101659.22
2022-07-31T23:58:18.526Z,101663.94
